createdAt,value
2022-10-19T00:04:24.204Z,26.42
2022-10-19T00:09:26.113Z,35.67
2022-10-19T00:14:27.905Z,31.45
2022-10-19T00:19:29.741Z,28.15
2022-10-19T00:24:31.514Z,33.65
2022-10-19T00:29:33.272Z,40.67
2022-10-19T00:34:35.003Z,27.48
2022-10-19T00:39:36.810Z,42.83
2022-10-19T00:44:38.493Z,33.60
2022-10-19T00:49:44.293Z,32.95
2022-10-19T00:54:49.054Z,40.90
2022-10-19T00:59:51.854Z,43.17
2022-10-19T01:04:54.032Z,34.17
2022-10-19T01:09:56.273Z,26.90
2022-10-19T01:15:13.662Z,31.15
2022-10-19T01:20:46.203Z,28.15
2022-10-19T01:26:22.123Z,30.73
2022-10-19T01:31:42.243Z,44.33
2022-10-19T01:37:02.755Z,40.85
2022-10-19T01:42:24.014Z,39.50
2022-10-19T01:47:41.565Z,22.92
2022-10-19T01:52:44.193Z,41.28
2022-10-19T01:57:57.163Z,29.83
2022-10-19T02:03:00.763Z,43.72
2022-10-19T02:08:12.273Z,65.28
2022-10-19T02:13:16.646Z,31.92
2022-10-19T02:18:26.896Z,40.03
2022-10-19T02:23:28.725Z,26.93
2022-10-19T02:28:31.006Z,32.03
2022-10-19T02:33:32.975Z,29.98
2022-10-19T02:38:34.847Z,29.85
2022-10-19T02:43:40.138Z,40.97
2022-10-19T02:48:43.003Z,32.72
2022-10-19T02:53:44.781Z,35.47
2022-10-19T02:58:46.547Z,39.58
2022-10-19T03:03:48.616Z,52.53
2022-10-19T03:08:51.165Z,35.67
2022-10-19T03:13:52.955Z,38.47
2022-10-19T03:18:55.213Z,44.45
2022-10-19T03:23:56.975Z,27.65
2022-10-19T03:28:58.791Z,31.67
2022-10-19T03:34:00.583Z,24.85
2022-10-19T03:39:05.145Z,46.65
2022-10-19T03:44:07.743Z,35.33
2022-10-19T03:49:13.991Z,50.20
2022-10-19T03:54:17.410Z,42.78
2022-10-19T03:59:19.135Z,21.85
2022-10-19T04:04:20.960Z,26.73
2022-10-19T04:09:23.209Z,18.90
2022-10-19T04:14:32.430Z,34.17
2022-10-19T04:19:34.783Z,25.33
2022-10-19T04:24:36.540Z,20.77
2022-10-19T04:29:38.412Z,22.85
2022-10-19T04:34:40.289Z,33.35
2022-10-19T04:39:43.535Z,26.25
2022-10-19T04:44:45.354Z,23.85
2022-10-19T04:49:47.108Z,39.42
2022-10-19T04:54:48.836Z,17.02
2022-10-19T04:59:50.577Z,30.67
2022-10-19T05:04:52.330Z,30.90
2022-10-19T05:09:54.063Z,33.20
2022-10-19T05:14:55.808Z,19.30
2022-10-19T05:19:57.715Z,33.25
2022-10-19T05:24:59.475Z,16.17
2022-10-19T05:30:01.296Z,21.85
2022-10-19T05:35:03.165Z,20.17
2022-10-19T05:40:05.516Z,36.55
2022-10-19T05:45:07.646Z,32.17
2022-10-19T05:50:09.765Z,19.25
2022-10-19T05:55:11.625Z,19.27
2022-10-19T06:00:13.767Z,23.42
2022-10-19T06:05:15.555Z,14.07
2022-10-19T06:10:17.812Z,22.27
2022-10-19T06:15:19.551Z,27.13
2022-10-19T06:20:21.425Z,15.98
2022-10-19T06:25:23.279Z,18.77
2022-10-19T06:30:25.426Z,17.55
2022-10-19T06:35:27.769Z,16.88
2022-10-19T06:40:29.681Z,15.88
2022-10-19T06:45:35.682Z,19.35
2022-10-19T06:50:38.013Z,23.88
2022-10-19T06:55:39.825Z,31.00
2022-10-19T07:00:41.693Z,18.35
2022-10-19T07:05:43.535Z,24.63
2022-10-19T07:10:49.397Z,24.23
2022-10-19T07:16:05.807Z,20.08
2022-10-19T07:21:10.984Z,13.93
2022-10-19T07:26:15.909Z,17.23
2022-10-19T07:31:22.354Z,14.90
2022-10-19T07:36:25.466Z,13.65
2022-10-19T07:41:27.716Z,16.50
2022-10-19T07:46:33.715Z,13.77
2022-10-19T07:51:36.235Z,17.30
2022-10-19T07:56:38.104Z,11.10
2022-10-19T08:01:45.283Z,12.93
2022-10-19T08:06:47.230Z,14.13
2022-10-19T08:11:49.105Z,12.73
2022-10-19T08:16:51.537Z,12.38
2022-10-19T08:21:53.517Z,11.90
2022-10-19T08:26:55.809Z,13.57
2022-10-19T08:31:57.658Z,10.98
2022-10-19T08:37:06.755Z,10.80
2022-10-19T08:42:20.268Z,10.40
2022-10-19T08:47:33.932Z,11.18
2022-10-19T08:52:36.929Z,10.10
2022-10-19T08:57:47.797Z,10.35
2022-10-19T09:07:59.506Z,10.68
2022-10-19T09:13:07.638Z,11.23
2022-10-19T09:18:14.910Z,11.13
2022-10-19T09:23:44.248Z,11.13
2022-10-19T09:28:58.706Z,10.35
2022-10-19T09:34:05.860Z,10.77
2022-10-19T09:39:12.488Z,10.05
2022-10-19T09:44:14.330Z,9.63
2022-10-19T09:49:16.198Z,8.35
2022-10-19T09:54:39.600Z,7.63
2022-10-19T09:59:42.846Z,7.45
2022-10-19T10:05:07.092Z,8.02
2022-10-19T10:10:30.556Z,7.68
2022-10-19T10:15:57.229Z,6.88
2022-10-19T10:21:25.813Z,6.90
2022-10-19T10:26:28.547Z,6.68
2022-10-19T10:31:31.119Z,6.50
2022-10-19T10:36:34.022Z,6.38
2022-10-19T10:41:41.028Z,6.35
2022-10-19T10:47:03.494Z,6.63
2022-10-19T10:52:10.297Z,6.38
2022-10-19T10:57:20.566Z,6.50
2022-10-19T11:02:30.589Z,5.93
2022-10-19T11:07:35.283Z,6.03
2022-10-19T11:12:46.601Z,6.00
2022-10-19T11:18:21.718Z,6.20
2022-10-19T11:23:44.580Z,6.70
2022-10-19T11:28:55.379Z,5.53
2022-10-19T11:34:07.108Z,5.93
2022-10-19T11:39:15.499Z,6.05
2022-10-19T11:44:37.631Z,6.93
2022-10-19T11:49:50.491Z,6.03
2022-10-19T11:55:32.078Z,6.72
2022-10-19T12:01:03.946Z,6.72
2022-10-19T12:06:36.498Z,6.70
2022-10-19T12:12:03.215Z,6.25
2022-10-19T12:17:34.254Z,6.53
2022-10-19T12:22:38.037Z,6.65
2022-10-19T12:27:41.728Z,6.07
2022-10-19T12:33:03.674Z,6.20
2022-10-19T12:38:47.982Z,6.50
2022-10-19T12:43:59.317Z,6.80
2022-10-19T12:49:29.384Z,5.82
2022-10-19T12:54:38.154Z,5.70
2022-10-19T12:59:40.055Z,5.68
2022-10-19T13:04:53.605Z,6.15
2022-10-19T13:10:05.717Z,5.18
2022-10-19T13:15:36.064Z,5.72
2022-10-19T13:26:07.543Z,5.10
2022-10-19T13:31:34.254Z,4.88
2022-10-19T13:36:39.461Z,3.90
2022-10-19T13:41:49.405Z,4.10
2022-10-19T13:47:23.082Z,4.30
2022-10-19T13:52:55.868Z,4.03
2022-10-19T13:58:17.225Z,4.45
2022-10-19T14:03:37.085Z,3.60
2022-10-19T14:09:05.068Z,3.63
2022-10-19T14:14:10.726Z,3.15
2022-10-19T14:19:27.511Z,3.45
2022-10-19T14:24:36.117Z,3.70
2022-10-19T14:29:47.876Z,4.38
2022-10-19T14:34:51.062Z,3.80
2022-10-19T14:40:02.012Z,3.85
2022-10-19T14:45:04.648Z,3.88
2022-10-19T14:50:08.595Z,3.63
2022-10-19T14:55:19.067Z,3.28
2022-10-19T15:05:29.383Z,3.47
2022-10-19T15:10:45.825Z,3.20
2022-10-19T15:15:51.623Z,3.10
2022-10-19T15:21:13.163Z,3.10
2022-10-19T15:26:20.239Z,3.65
2022-10-19T15:31:29.989Z,3.20
2022-10-19T15:36:33.882Z,3.13
2022-10-19T15:41:39.681Z,3.28
2022-10-19T15:46:48.166Z,2.83
2022-10-19T15:51:50.699Z,2.92
2022-10-19T15:56:53.269Z,3.30
2022-10-19T16:01:56.163Z,3.10
2022-10-19T16:06:58.265Z,2.85
2022-10-19T16:12:00.031Z,2.90
2022-10-19T16:17:01.845Z,3.17
2022-10-19T16:22:03.774Z,3.08
2022-10-19T16:27:06.899Z,3.10
2022-10-19T16:32:09.220Z,3.33
2022-10-19T16:37:11.101Z,2.88
2022-10-19T16:42:12.965Z,3.35
2022-10-19T16:47:17.178Z,3.40
2022-10-19T16:52:19.034Z,3.30
2022-10-19T16:57:20.866Z,3.30
2022-10-19T17:02:23.881Z,3.53
2022-10-19T17:07:26.597Z,3.42
2022-10-19T17:12:28.460Z,3.17
2022-10-19T17:17:30.318Z,2.95
2022-10-19T17:22:32.199Z,3.17
2022-10-19T17:27:34.059Z,3.08
2022-10-19T17:32:36.142Z,3.13
2022-10-19T17:37:38.324Z,3.13
2022-10-19T17:42:40.309Z,3.00
2022-10-19T17:47:42.127Z,3.25
2022-10-19T17:52:43.917Z,3.20
2022-10-19T17:57:46.141Z,3.17
2022-10-19T18:02:49.366Z,3.70
2022-10-19T18:07:51.640Z,2.95
2022-10-19T18:12:53.549Z,3.00
2022-10-19T18:17:56.099Z,3.75
2022-10-19T18:22:57.938Z,4.50
2022-10-19T18:27:59.824Z,3.72
2022-10-19T18:33:01.855Z,3.42
2022-10-19T18:38:04.974Z,3.80
2022-10-19T18:43:06.979Z,3.60
2022-10-19T18:48:08.974Z,4.03
2022-10-19T18:53:10.830Z,3.65
2022-10-19T18:58:12.925Z,3.92
2022-10-19T19:03:14.750Z,4.20
2022-10-19T19:08:16.726Z,4.22
2022-10-19T19:13:18.779Z,4.75
2022-10-19T19:18:21.138Z,4.13
2022-10-19T19:23:22.926Z,5.00
2022-10-19T19:28:24.744Z,4.53
2022-10-19T19:33:26.586Z,5.20
2022-10-19T19:38:28.516Z,4.68
2022-10-19T19:43:33.012Z,4.50
2022-10-19T19:48:35.486Z,4.78
2022-10-19T19:53:38.218Z,5.47
2022-10-19T19:58:43.012Z,5.97
2022-10-19T20:03:47.248Z,5.97
2022-10-19T20:08:49.392Z,5.63
2022-10-19T20:13:52.223Z,5.45
2022-10-19T20:19:00.253Z,5.43
2022-10-19T20:24:02.327Z,5.18
2022-10-19T20:29:05.331Z,5.13
2022-10-19T20:34:09.177Z,5.90
2022-10-19T20:39:11.013Z,5.45
2022-10-19T20:44:12.898Z,5.88
2022-10-19T20:49:14.798Z,6.28
2022-10-19T20:54:16.831Z,6.07
2022-10-19T20:59:21.791Z,6.65
2022-10-19T21:04:25.059Z,7.13
2022-10-19T21:09:27.189Z,6.75
2022-10-19T21:14:30.279Z,6.97
2022-10-19T21:19:32.239Z,6.97
2022-10-19T21:24:36.159Z,7.10
2022-10-19T21:29:38.174Z,6.80
2022-10-19T21:34:39.922Z,7.60
2022-10-19T21:39:41.755Z,7.22
2022-10-19T21:44:43.614Z,7.30
2022-10-19T21:49:45.466Z,7.80
2022-10-19T21:54:47.445Z,6.63
2022-10-19T21:59:49.304Z,6.47
2022-10-19T22:04:51.155Z,6.53
2022-10-19T22:09:53.242Z,6.40
2022-10-19T22:14:55.185Z,6.97
2022-10-19T22:19:57.045Z,6.47
2022-10-19T22:24:58.782Z,7.22
2022-10-19T22:30:00.565Z,7.07
2022-10-19T22:35:02.394Z,7.45
2022-10-19T22:40:04.594Z,6.38
2022-10-19T22:45:07.080Z,6.85
2022-10-19T22:50:11.959Z,7.43
2022-10-19T22:55:13.931Z,6.80
2022-10-19T23:00:15.921Z,7.18
2022-10-19T23:05:17.740Z,7.30
2022-10-19T23:10:19.556Z,7.97
2022-10-19T23:15:22.008Z,7.55
2022-10-19T23:20:23.748Z,7.95
2022-10-19T23:25:25.597Z,7.72
2022-10-19T23:30:27.410Z,8.50
2022-10-19T23:35:29.154Z,7.60
2022-10-19T23:40:30.856Z,8.63
2022-10-19T23:45:32.817Z,8.45
2022-10-19T23:50:34.528Z,8.73
2022-10-19T23:55:36.370Z,9.18
